Airfield :
LOGIN :

Register | Disclaimer

   EN    FR    IT 

 










Legend :    VFR   Marginal VFR   IFR   Intensive IFR   Very Intensive IFR
Visi :
Ceiling :
>= 8 km
>= 3000ft
5 to 8 km
1000 to 3000 ft
1500m to 5 km
500 to 1000 ft
800 to 1500m
200 to 500 ft
< 800m
< 200 ft
Symbols :   Thunderstorms  Fog  Heavy snow  Heavy precipitations  Wind > 20 kt
SIGMETs :     Misc.  Thunderstorms  Icing  Turbulence  Mountain Waves  Volcanic Ashes







- Airport Elevation : 600 ft
- IATA code : VIE


LOWW - Vienna Schwechat

CURRENT METAR :
  • 230850Z 13009KT 0650 R16/0900N FG FEW000 OVC001 03/03 Q1015 TEMPO OVC002

EXPIRED METARs :
  • 230820Z 13008KT 0450 R16/0600N FG FEW000 BKN001 02/02 Q1015 BECMG OVC002
  • 230750Z 14011KT 0650 R16/0900D FG FEW000 OVC001 02/02 Q1015 BECMG OVC002
  • 230720Z 15008KT 0750 R16/1300D FG FEW000 OVC001 02/02 Q1015 BECMG OVC002
  • 230650Z 15008KT 0500 R16/0700N FG FEW000 OVC001 02/02 Q1015 NOSIG
  • 230620Z 15006KT 0650 R16/1100D FG FEW000 OVC001 02/02 Q1015 NOSIG

TAF AMD TAF LOWW
Valid from the 23 at 09:00 until the 24 at 12:00 UTC


230910Z 2309/2412 15006KT 0500 FG VV001 TX06/2313Z TN02/2405Z
BECMG 2310/2312 2000 BR BKN004
BECMG 2312/2314 7000 NSW BKN012
TEMPO 2314/2317 29005KT 9999 SCT015
BECMG 2317/2319 2000 BR SCT004 SCT010
BECMG 2319/2322 0700 FG SCT001 BKN003
TEMPO 2322/2406 VRB02KT 0300 VV001
BECMG 2409/2411 4000 BR SCT003 BKN007
No reported NOTAMs for that airfield.



MET'MAP, your aeronautical weather chart ! - Copyright ORBIFLY December 2007 - Disclaimer

ORBIFLY MET'MAP TEAM :

Programming & Development : Alexandra Zaïnal
Concept & Development : Baudouin d'Aumeries
Co-Development & Prog : Marc-Olivier Méhu
Technical & hardware support : Manuel Goepfert

Contact : metmap@orbifly.com




SOURCES & CREDITS :

   NOAA